Time;durP1;ratioP1;P1;durP2;ratioP2;P2;SDS_P1;SDS_P2;PMS_P1;PMS_P2;Temp;Humidity;BMP_temperature;BMP_pressure;BME280_temperature;BME280_humidity;BME280_pressure;Samples;Min_cycle;Max_cycle;Signal;HPM_P1;HPM_P2
2022/03/18 00:01:08;;;;;;;0.10;0.10;;;;;;;;;;5005722;28;20627;-65
2022/03/18 00:03:35;;;;;;;0.10;0.10;;;;;;;;;;4988405;28;20761;-66
2022/03/18 00:06:02;;;;;;;0.10;0.10;;;;;;;;;;5002967;28;20635;-65
2022/03/18 00:08:30;;;;;;;0.10;0.10;;;;;;;;;;4991899;28;20665;-65
2022/03/18 00:10:57;;;;;;;0.10;0.10;;;;;;;;;;5005158;28;20610;-66
2022/03/18 00:13:24;;;;;;;0.00;0.00;;;;;;;;;;4987815;28;20652;-66
2022/03/18 00:15:54;;;;;;;0.10;0.10;;;;;;;;;;4990891;28;20618;-66
2022/03/18 00:18:21;;;;;;;0.10;0.10;;;;;;;;;;5006227;28;21269;-66
2022/03/18 00:20:49;;;;;;;0.10;0.10;;;;;;;;;;5001581;28;20649;-65
2022/03/18 00:23:16;;;;;;;0.10;0.10;;;;;;;;;;4989114;28;20634;-65
2022/03/18 00:25:44;;;;;;;0.10;0.10;;;;;;;;;;5007817;28;20706;-65
2022/03/18 00:28:11;;;;;;;0.10;0.10;;;;;;;;;;5007953;28;20664;-66
2022/03/18 00:30:39;;;;;;;0.13;0.13;;;;;;;;;;5005087;28;20665;-66
2022/03/18 00:33:07;;;;;;;0.10;0.10;;;;;;;;;;5006297;28;20637;-66
2022/03/18 00:35:35;;;;;;;0.10;0.10;;;;;;;;;;4990367;28;20628;-66
2022/03/18 00:38:02;;;;;;;0.10;0.10;;;;;;;;;;5002409;28;20785;-66
2022/03/18 00:40:30;;;;;;;0.10;0.10;;;;;;;;;;5005846;28;20727;-65
2022/03/18 00:42:57;;;;;;;0.10;0.10;;;;;;;;;;5006843;28;20618;-65
2022/03/18 00:45:25;;;;;;;0.10;0.10;;;;;;;;;;4988790;28;20634;-65
2022/03/18 00:53:24;;;;;;;0.10;0.10;;;;;;;;;;4991600;28;20613;-65
2022/03/18 00:55:51;;;;;;;0.10;0.10;;;;;;;;;;5008580;28;20604;-65
2022/03/18 00:58:19;;;;;;;0.10;0.10;;;;;;;;;;5007097;28;20642;-66
2022/03/18 01:00:46;;;;;;;0.10;0.10;;;;;;;;;;4988362;28;20663;-65
2022/03/18 01:03:15;;;;;;;0.20;0.20;;;;;;;;;;4990736;28;20635;-65
2022/03/18 01:05:44;;;;;;;0.10;0.10;;;;;;;;;;4991322;28;20620;-65
2022/03/18 01:08:12;;;;;;;0.10;0.10;;;;;;;;;;5002650;28;20675;-65
2022/03/18 01:10:39;;;;;;;0.20;0.20;;;;;;;;;;5003787;28;20615;-65
2022/03/18 01:13:06;;;;;;;0.20;0.20;;;;;;;;;;4998027;28;20634;-65
2022/03/18 01:15:34;;;;;;;0.10;0.10;;;;;;;;;;5003385;28;20623;-65
2022/03/18 01:18:01;;;;;;;0.10;0.10;;;;;;;;;;5002934;28;20643;-66
2022/03/18 01:20:29;;;;;;;0.10;0.10;;;;;;;;;;5004421;28;20672;-66
2022/03/18 01:22:57;;;;;;;0.10;0.10;;;;;;;;;;4987265;28;20631;-65
2022/03/18 01:25:25;;;;;;;0.20;0.20;;;;;;;;;;4989695;28;20642;-65
2022/03/18 01:27:53;;;;;;;0.20;0.20;;;;;;;;;;4985402;28;20658;-65
2022/03/18 01:30:20;;;;;;;0.20;0.20;;;;;;;;;;5004511;28;20599;-65
2022/03/18 01:32:47;;;;;;;0.10;0.10;;;;;;;;;;5006596;28;20606;-65
2022/03/18 01:35:15;;;;;;;0.10;0.10;;;;;;;;;;5001303;28;20611;-66
2022/03/18 01:37:42;;;;;;;0.10;0.10;;;;;;;;;;5005793;28;20706;-66
2022/03/18 01:40:12;;;;;;;0.10;0.10;;;;;;;;;;4986659;28;20739;-66
2022/03/18 01:42:39;;;;;;;0.10;0.10;;;;;;;;;;4986638;28;20627;-64
2022/03/18 01:45:07;;;;;;;0.20;0.20;;;;;;;;;;5001858;28;20684;-65
2022/03/18 01:47:35;;;;;;;0.17;0.17;;;;;;;;;;4988672;28;20714;-66
2022/03/18 01:50:02;;;;;;;0.10;0.10;;;;;;;;;;4986192;28;20630;-66
2022/03/18 01:52:29;;;;;;;0.10;0.10;;;;;;;;;;4987034;28;20746;-65
2022/03/18 01:54:57;;;;;;;0.10;0.10;;;;;;;;;;5006182;28;20617;-65
2022/03/18 01:57:28;;;;;;;0.10;0.10;;;;;;;;;;4996444;28;20635;-65
2022/03/18 01:59:57;;;;;;;0.10;0.10;;;;;;;;;;5002612;28;20763;-66
2022/03/18 02:02:25;;;;;;;0.10;0.10;;;;;;;;;;5002725;28;20630;-66
2022/03/18 02:04:52;;;;;;;0.10;0.10;;;;;;;;;;4998148;28;20620;-65
2022/03/18 02:07:19;;;;;;;0.10;0.10;;;3.60;99.90;;;;;;4987196;28;20720;-65
2022/03/18 02:09:47;;;;;;;0.10;0.10;;;;;;;;;;5001622;28;20635;-65
2022/03/18 02:12:14;;;;;;;0.10;0.10;;;;;;;;;;4988091;28;20630;-65
2022/03/18 02:14:45;;;;;;;0.10;0.10;;;;;;;;;;5002667;28;20607;-66
2022/03/18 02:17:13;;;;;;;0.10;0.10;;;;;;;;;;5007933;28;20613;-65
2022/03/18 02:19:41;;;;;;;0.10;0.10;;;;;;;;;;4985984;28;20667;-65
2022/03/18 02:22:11;;;;;;;0.13;0.13;;;;;;;;;;4990569;28;20628;-65
2022/03/18 02:24:40;;;;;;;0.17;0.17;;;;;;;;;;5006475;28;20670;-65
2022/03/18 02:27:07;;;;;;;0.10;0.10;;;3.50;99.90;;;;;;4984822;28;20644;-66
2022/03/18 02:29:35;;;;;;;0.20;0.20;;;3.50;99.90;;;;;;5004135;28;20643;-66
2022/03/18 02:32:03;;;;;;;0.20;0.20;;;3.50;99.90;;;;;;5000086;28;20627;-64
2022/03/18 02:34:30;;;;;;;0.10;0.10;;;3.50;99.90;;;;;;4988456;28;20610;-66
2022/03/18 02:36:58;;;;;;;0.10;0.10;;;3.50;99.90;;;;;;4990357;28;20620;-65
2022/03/18 02:39:25;;;;;;;0.20;0.20;;;3.50;99.90;;;;;;5005978;28;20666;-65
2022/03/18 02:41:54;;;;;;;0.20;0.20;;;3.50;99.90;;;;;;4989784;28;20638;-65
2022/03/18 02:44:22;;;;;;;0.10;0.10;;;3.50;99.90;;;;;;5010989;28;20634;-65
2022/03/18 02:46:50;;;;;;;0.20;0.20;;;3.40;99.90;;;;;;4991254;28;20634;-65
2022/03/18 02:49:19;;;;;;;0.13;0.13;;;3.40;99.90;;;;;;5001456;28;20721;-65
2022/03/18 02:51:46;;;;;;;0.10;0.10;;;;;;;;;;5001610;28;21309;-66
2022/03/18 02:54:13;;;;;;;0.10;0.10;;;;;;;;;;5009637;28;20675;-66
2022/03/18 02:56:41;;;;;;;0.20;0.20;;;;;;;;;;5009259;28;20627;-66
2022/03/18 02:59:09;;;;;;;0.20;0.20;;;;;;;;;;5001547;28;20659;-65
2022/03/18 03:01:37;;;;;;;0.20;0.20;;;;;;;;;;4993449;28;20670;-67
2022/03/18 03:04:04;;;;;;;0.10;0.10;;;;;;;;;;5000577;28;20633;-66
2022/03/18 03:09:17;;;;;;;0.10;0.10;;;;;;;;;;5011268;28;20643;-65
2022/03/18 03:11:44;;;;;;;0.10;0.10;;;;;;;;;;5007298;28;20619;-65
2022/03/18 03:14:13;;;;;;;0.20;0.20;;;;;;;;;;4997671;28;20629;-65
2022/03/18 03:16:41;;;;;;;0.20;0.20;;;;;;;;;;5005927;28;20729;-65
2022/03/18 03:19:08;;;;;;;0.20;0.20;;;2.90;99.90;;;;;;5013103;28;20675;-65
2022/03/18 03:21:36;;;;;;;0.10;0.10;;;3.00;99.90;;;;;;5013793;28;20681;-66
2022/03/18 03:24:03;;;;;;;0.20;0.20;;;;;;;;;;4995913;28;20654;-66
2022/03/18 03:26:31;;;;;;;0.10;0.10;;;;;;;;;;5009003;28;20661;-66
2022/03/18 03:28:58;;;;;;;0.20;0.20;;;;;;;;;;5010625;28;20638;-66
2022/03/18 03:31:27;;;;;;;0.10;0.10;;;;;;;;;;5004793;28;20611;-67
2022/03/18 03:33:55;;;;;;;0.20;0.20;;;;;;;;;;5005045;28;20734;-66
2022/03/18 03:36:23;;;;;;;0.10;0.10;;;;;;;;;;5005478;28;20627;-66
2022/03/18 03:38:51;;;;;;;0.13;0.13;;;;;;;;;;5006239;28;20716;-65
2022/03/18 03:41:21;;;;;;;0.20;0.20;;;;;;;;;;5006685;28;20654;-65
2022/03/18 03:43:48;;;;;;;0.20;0.20;;;;;;;;;;5005929;28;20619;-65
2022/03/18 03:46:16;;;;;;;0.20;0.20;;;;;;;;;;5005616;28;21225;-65
2022/03/18 03:48:44;;;;;;;0.20;0.20;;;;;;;;;;5004928;28;20721;-65
2022/03/18 03:51:11;;;;;;;0.10;0.10;;;;;;;;;;5010218;28;20632;-64
2022/03/18 03:53:39;;;;;;;0.20;0.20;;;;;;;;;;5011781;28;20611;-65
2022/03/18 03:56:07;;;;;;;0.20;0.20;;;;;;;;;;5012631;28;20627;-66
2022/03/18 03:58:34;;;;;;;0.10;0.10;;;;;;;;;;5014852;28;20647;-66
2022/03/18 04:01:01;;;;;;;0.20;0.20;;;;;;;;;;4993253;28;20746;-65
2022/03/18 04:03:29;;;;;;;0.20;0.20;;;;;;;;;;5009895;28;20627;-66
2022/03/18 04:05:57;;;;;;;0.20;0.20;;;;;;;;;;5011945;28;20611;-65
2022/03/18 04:08:25;;;;;;;0.10;0.10;;;;;;;;;;5005421;28;20673;-65
2022/03/18 04:10:52;;;;;;;0.10;0.10;;;;;;;;;;5010657;28;21191;-66
2022/03/18 04:13:19;;;;;;;0.20;0.20;;;;;;;;;;4997276;28;20717;-66
2022/03/18 04:15:47;;;;;;;0.20;0.20;;;;;;;;;;5004528;28;20630;-65
2022/03/18 04:18:14;;;;;;;0.20;0.20;;;;;;;;;;4993316;28;20749;-65
2022/03/18 04:20:42;;;;;;;0.20;0.20;;;;;;;;;;5009892;28;20758;-66
2022/03/18 04:23:10;;;;;;;0.20;0.20;;;;;;;;;;5013501;28;20603;-68
2022/03/18 04:25:40;;;;;;;0.13;0.13;;;;;;;;;;4992107;28;20627;-68
2022/03/18 04:28:07;;;;;;;0.20;0.20;;;;;;;;;;5007340;28;20659;-66
2022/03/18 04:30:34;;;;;;;0.20;0.20;;;;;;;;;;4993029;28;20709;-67
2022/03/18 04:33:01;;;;;;;0.20;0.20;;;;;;;;;;5012941;28;20616;-67
2022/03/18 04:35:31;;;;;;;0.20;0.20;;;;;;;;;;4990548;28;20635;-66
2022/03/18 04:37:59;;;;;;;0.20;0.20;;;;;;;;;;5009203;28;20630;-66
2022/03/18 04:40:28;;;;;;;0.20;0.20;;;;;;;;;;4993365;28;20746;-67
2022/03/18 04:42:55;;;;;;;0.20;0.20;;;;;;;;;;5011614;28;20602;-66
2022/03/18 04:45:23;;;;;;;0.20;0.20;;;;;;;;;;5015385;28;20623;-67
2022/03/18 04:47:50;;;;;;;0.20;0.20;;;;;;;;;;5001824;28;20652;-67
2022/03/18 04:50:17;;;;;;;0.20;0.20;;;;;;;;;;5014295;28;20749;-67
2022/03/18 04:52:45;;;;;;;0.20;0.20;;;;;;;;;;5013207;28;20618;-67
2022/03/18 04:55:12;;;;;;;0.17;0.17;;;;;;;;;;4994027;28;20634;-67
2022/03/18 04:57:40;;;;;;;0.20;0.20;;;;;;;;;;5009906;28;20624;-66
2022/03/18 05:00:08;;;;;;;0.20;0.20;;;;;;;;;;5012391;28;20754;-67
2022/03/18 05:02:36;;;;;;;0.13;0.13;;;;;;;;;;5012710;28;20618;-67
2022/03/18 05:05:04;;;;;;;0.20;0.20;;;;;;;;;;5004814;28;20627;-66
2022/03/18 05:07:31;;;;;;;0.20;0.20;;;;;;;;;;5009766;28;20663;-66
2022/03/18 05:09:58;;;;;;;0.20;0.20;;;;;;;;;;5006250;28;20634;-70
2022/03/18 05:12:27;;;;;;;0.20;0.20;;;;;;;;;;4986239;28;20615;-70
2022/03/18 05:14:56;;;;;;;0.20;0.20;;;;;;;;;;5006959;28;20612;-70
2022/03/18 05:17:24;;;;;;;0.20;0.20;;;;;;;;;;5000306;28;20650;-70
2022/03/18 05:19:51;;;;;;;0.20;0.20;;;;;;;;;;5003830;28;20643;-69
2022/03/18 05:22:19;;;;;;;0.20;0.20;;;;;;;;;;5004559;28;20635;-68
2022/03/18 05:24:46;;;;;;;0.20;0.20;;;;;;;;;;4986828;28;20717;-68
2022/03/18 05:27:13;;;;;;;0.20;0.20;;;;;;;;;;4988324;28;20618;-69
2022/03/18 05:29:41;;;;;;;0.20;0.20;;;;;;;;;;4990856;28;21242;-67
2022/03/18 05:32:10;;;;;;;0.10;0.10;;;;;;;;;;5006521;28;20614;-65
2022/03/18 05:34:37;;;;;;;0.13;0.13;;;;;;;;;;5003435;28;20607;-65
2022/03/18 05:37:05;;;;;;;0.10;0.10;;;;;;;;;;4999690;28;20650;-64
2022/03/18 05:39:35;;;;;;;0.20;0.20;;;;;;;;;;4996389;28;20663;-67
2022/03/18 05:42:04;;;;;;;0.20;0.20;;;;;;;;;;5001507;28;20750;-67
2022/03/18 05:44:31;;;;;;;0.20;0.20;;;;;;;;;;5002751;28;20635;-69
2022/03/18 05:46:58;;;;;;;0.20;0.20;;;;;;;;;;4998734;28;20646;-68
2022/03/18 05:49:28;;;;;;;0.20;0.20;;;;;;;;;;5004023;28;20647;-68
2022/03/18 05:51:55;;;;;;;0.20;0.20;;;;;;;;;;5000671;28;20623;-67
2022/03/18 05:54:22;;;;;;;0.20;0.20;;;;;;;;;;5003567;28;20623;-66
2022/03/18 05:56:55;;;;;;;0.17;0.17;;;;;;;;;;5002284;28;20700;-67
2022/03/18 05:59:23;;;;;;;0.20;0.20;;;;;;;;;;4998878;28;20670;-68
2022/03/18 06:01:52;;;;;;;0.20;0.20;;;;;;;;;;4984671;28;20664;-68
2022/03/18 06:04:19;;;;;;;0.10;0.10;;;;;;;;;;5005700;28;20714;-64
2022/03/18 06:06:48;;;;;;;0.20;0.20;;;;;;;;;;5001737;28;20637;-65
2022/03/18 06:12:01;;;;;;;0.27;0.27;;;;;;;;;;5000413;28;20614;-66
2022/03/18 06:14:29;;;;;;;0.20;0.20;;;;;;;;;;4996902;28;20666;-66
2022/03/18 06:16:59;;;;;;;0.20;0.20;;;;;;;;;;5003110;28;20678;-65
2022/03/18 06:19:27;;;;;;;0.20;0.20;;;;;;;;;;4987366;28;20724;-66
2022/03/18 06:21:57;;;;;;;0.20;0.20;;;;;;;;;;5003663;28;20657;-66
2022/03/18 06:24:25;;;;;;;0.20;0.20;;;;;;;;;;4987763;28;20627;-66
2022/03/18 06:26:53;;;;;;;0.10;0.10;;;;;;;;;;4986120;28;20722;-66
2022/03/18 06:29:20;;;;;;;0.20;0.20;;;;;;;;;;4988418;28;20661;-66
2022/03/18 06:31:48;;;;;;;0.20;0.20;;;;;;;;;;4987201;28;20619;-66
2022/03/18 06:34:16;;;;;;;0.20;0.20;;;;;;;;;;5008555;28;20615;-66
2022/03/18 06:36:44;;;;;;;0.10;0.10;;;;;;;;;;5003249;28;20742;-66
2022/03/18 06:39:14;;;;;;;0.20;0.20;;;;;;;;;;5003466;28;20673;-65
2022/03/18 06:41:41;;;;;;;0.20;0.20;;;;;;;;;;4989365;28;20660;-66
2022/03/18 06:44:09;;;;;;;0.10;0.10;;;;;;;;;;4986056;28;20628;-68
2022/03/18 06:46:36;;;;;;;0.20;0.20;;;;;;;;;;5003532;28;20711;-66
2022/03/18 06:49:04;;;;;;;0.20;0.20;;;;;;;;;;4996919;28;20733;-66
2022/03/18 06:51:31;;;;;;;0.23;0.23;;;;;;;;;;5002527;28;20709;-66
2022/03/18 06:53:59;;;;;;;0.10;0.10;;;;;;;;;;5008567;28;21294;-66
2022/03/18 06:56:30;;;;;;;0.17;0.17;;;;;;;;;;4989033;28;20627;-66
2022/03/18 06:58:57;;;;;;;0.10;0.10;;;;;;;;;;4987951;28;20736;-66
2022/03/18 07:01:25;;;;;;;0.17;0.17;;;;;;;;;;5005791;28;20725;-66
2022/03/18 07:03:52;;;;;;;0.20;0.20;;;;;;;;;;4985947;28;20723;-66
2022/03/18 07:06:20;;;;;;;0.10;0.10;;;;;;;;;;5003927;28;20618;-67
2022/03/18 07:08:47;;;;;;;0.20;0.20;;;;;;;;;;5004131;28;20739;-66
2022/03/18 07:11:15;;;;;;;0.20;0.20;;;;;;;;;;5000847;28;20621;-66
2022/03/18 07:13:46;;;;;;;0.10;0.10;;;;;;;;;;4987508;28;20634;-66
2022/03/18 07:18:59;;;;;;;0.10;0.10;;;;;;;;;;5002166;28;20631;-66
2022/03/18 07:21:26;;;;;;;0.10;0.10;;;;;;;;;;5006034;28;20654;-66
2022/03/18 07:23:54;;;;;;;0.10;0.10;;;;;;;;;;5004824;28;20607;-67
2022/03/18 07:26:22;;;;;;;0.10;0.10;;;;;;;;;;4985400;28;20677;-66
2022/03/18 07:28:51;;;;;;;0.20;0.20;;;;;;;;;;5004671;28;20676;-66
2022/03/18 07:31:18;;;;;;;0.10;0.10;;;;;;;;;;5003831;28;20606;-66
2022/03/18 07:33:46;;;;;;;0.10;0.10;;;;;;;;;;5002965;28;20613;-66
2022/03/18 07:36:13;;;;;;;0.13;0.13;;;;;;;;;;5005618;28;20616;-66
2022/03/18 07:38:42;;;;;;;0.10;0.10;;;;;;;;;;5000228;28;20693;-66
2022/03/18 07:41:11;;;;;;;0.10;0.10;;;;;;;;;;5001734;28;20640;-66
2022/03/18 07:43:39;;;;;;;0.10;0.10;;;;;;;;;;5005154;28;20622;-66
2022/03/18 07:46:08;;;;;;;0.10;0.10;;;;;;;;;;4996013;28;20618;-66
2022/03/18 07:48:39;;;;;;;0.10;0.10;;;;;;;;;;4984990;28;20658;-65
2022/03/18 07:51:07;;;;;;;0.10;0.10;;;;;;;;;;4999499;28;20672;-67
2022/03/18 07:53:34;;;;;;;0.10;0.10;;;9.20;99.90;;;;;;4986134;28;20627;-66
2022/03/18 07:56:02;;;;;;;0.10;0.10;;;9.50;99.90;;;;;;4994405;28;20628;-66
2022/03/18 07:58:28;;;;;;;0.10;0.10;;;9.60;99.90;;;;;;5008143;28;20666;-66
2022/03/18 08:00:56;;;;;;;0.10;0.10;;;9.70;99.90;;;;;;5005366;28;20643;-66
2022/03/18 08:03:24;;;;;;;0.10;0.10;;;9.70;99.90;;;;;;4992016;28;20627;-66
2022/03/18 08:05:51;;;;;;;0.10;0.10;;;9.70;99.90;;;;;;5007888;28;20633;-66
2022/03/18 08:08:18;;;;;;;0.10;0.10;;;9.70;99.90;;;;;;5002030;28;20765;-67
2022/03/18 08:10:45;;;;;;;0.10;0.10;;;9.70;99.90;;;;;;5009410;28;20674;-65
2022/03/18 08:13:13;;;;;;;0.10;0.10;;;9.50;99.90;;;;;;4992902;28;20611;-68
2022/03/18 08:15:42;;;;;;;0.10;0.10;;;9.30;99.90;;;;;;4993984;28;21069;-69
2022/03/18 08:18:10;;;;;;;0.10;0.10;;;9.10;99.90;;;;;;5002609;28;20666;-67
2022/03/18 08:20:40;;;;;;;0.10;0.10;;;9.10;99.90;;;;;;5004016;28;20654;-67
2022/03/18 08:23:08;;;;;;;0.10;0.10;;;9.00;99.90;;;;;;5009693;28;20697;-67
2022/03/18 08:25:35;;;;;;;0.10;0.10;;;8.90;99.90;;;;;;5004717;28;20725;-67
2022/03/18 08:28:05;;;;;;;0.10;0.10;;;8.90;99.90;;;;;;4987402;28;20721;-66
2022/03/18 08:30:32;;;;;;;0.10;0.10;;;9.00;99.90;;;;;;5001629;28;20642;-66
2022/03/18 08:32:59;;;;;;;0.10;0.10;;;9.20;99.90;;;;;;5006306;28;20611;-67
2022/03/18 08:35:26;;;;;;;0.10;0.10;;;9.30;99.90;;;;;;5003178;28;20630;-67
2022/03/18 08:37:58;;;;;;;0.10;0.10;;;9.40;99.90;;;;;;5000203;28;20654;-67
2022/03/18 08:40:26;;;;;;;0.10;0.10;;;9.50;99.90;;;;;;5004262;28;20719;-67
2022/03/18 08:42:54;;;;;;;0.10;0.10;;;;;;;;;;5008337;28;20682;-67
2022/03/18 08:45:21;;;;;;;0.00;0.00;;;;;;;;;;5007605;28;20616;-66
2022/03/18 08:47:48;;;;;;;0.10;0.10;;;;;;;;;;5003057;28;20635;-67
2022/03/18 08:50:16;;;;;;;0.10;0.10;;;;;;;;;;4988016;28;20665;-67
2022/03/18 08:52:45;;;;;;;0.10;0.10;;;;;;;;;;5006048;28;20629;-67
2022/03/18 08:55:14;;;;;;;0.10;0.10;;;;;;;;;;4988090;28;20618;-67
2022/03/18 08:57:42;;;;;;;0.10;0.10;;;;;;;;;;4988576;28;21056;-67
2022/03/18 09:00:10;;;;;;;0.10;0.10;;;;;;;;;;5007421;28;20631;-67
2022/03/18 09:02:40;;;;;;;0.10;0.10;;;;;;;;;;4996414;28;20669;-67
2022/03/18 09:05:08;;;;;;;0.10;0.10;;;;;;;;;;5003818;28;20199;-67
2022/03/18 09:07:36;;;;;;;0.10;0.10;;;;;;;;;;4989139;28;20726;-67
2022/03/18 09:10:04;;;;;;;0.10;0.10;;;;;;;;;;4999802;28;20629;-67
2022/03/18 09:12:33;;;;;;;0.10;0.10;;;;;;;;;;5004286;28;20211;-66
2022/03/18 09:15:02;;;;;;;0.10;0.10;;;;;;;;;;4998864;28;20209;-67
2022/03/18 09:17:31;;;;;;;0.10;0.10;;;;;;;;;;5005010;28;20219;-66
2022/03/18 09:19:59;;;;;;;0.10;0.10;;;;;;;;;;4988726;28;20199;-66
2022/03/18 09:22:26;;;;;;;0.10;0.10;;;;;;;;;;4998659;28;20217;-67
2022/03/18 09:24:54;;;;;;;0.10;0.10;;;;;;;;;;4996790;28;20196;-67
2022/03/18 09:27:21;;;;;;;0.10;0.10;;;;;;;;;;5001685;28;20205;-67
2022/03/18 09:29:50;;;;;;;0.10;0.10;;;;;;;;;;5005014;28;20306;-67
2022/03/18 09:32:17;;;;;;;0.10;0.10;;;;;;;;;;5003621;28;20192;-67
2022/03/18 09:34:45;;;;;;;0.10;0.10;;;;;;;;;;5007404;28;20214;-66
2022/03/18 09:37:12;;;;;;;0.10;0.10;;;;;;;;;;5003373;28;20269;-67
2022/03/18 09:39:39;;;;;;;0.10;0.10;;;;;;;;;;4986244;28;20294;-67
2022/03/18 09:42:06;;;;;;;0.10;0.10;;;;;;;;;;5004935;28;20313;-67
2022/03/18 09:44:36;;;;;;;0.10;0.10;;;;;;;;;;5003924;28;20203;-67
2022/03/18 09:47:06;;;;;;;0.10;0.10;;;;;;;;;;5006478;28;20200;-67
2022/03/18 09:49:34;;;;;;;0.10;0.10;;;;;;;;;;4987906;28;20226;-66
2022/03/18 09:52:01;;;;;;;0.10;0.10;;;;;;;;;;4989911;28;20216;-67
2022/03/18 09:54:29;;;;;;;0.10;0.10;;;;;;;;;;5001964;28;20241;-66
2022/03/18 09:56:57;;;;;;;0.10;0.10;;;;;;;;;;5003270;28;20212;-66
2022/03/18 09:59:25;;;;;;;0.10;0.10;;;;;;;;;;5004931;28;20322;-66
2022/03/18 10:02:12;;;;;;;0.10;0.10;;;;;;;;;;4989609;28;20224;-67
2022/03/18 10:04:53;;;;;;;0.10;0.10;;;;;;;;;;4998104;28;20208;-66
2022/03/18 10:07:21;;;;;;;0.10;0.10;;;;;;;;;;5005956;28;20256;-67
2022/03/18 10:09:49;;;;;;;0.10;0.10;;;;;;;;;;4985030;28;20242;-66
2022/03/18 10:12:33;;;;;;;0.00;0.00;;;;;;;;;;5003901;28;20191;-66
2022/03/18 10:15:12;;;;;;;0.10;0.10;;;;;;;;;;5000357;28;20232;-66
2022/03/18 10:17:43;;;;;;;0.10;0.10;;;;;;;;;;4984140;28;20208;-68
2022/03/18 10:20:25;;;;;;;0.10;0.10;;;;;;;;;;5003074;28;20208;-66
2022/03/18 10:22:52;;;;;;;0.10;0.10;;;;;;;;;;4997582;28;20232;-67
2022/03/18 10:25:39;;;;;;;0.10;0.10;;;;;;;;;;4990144;28;20364;-66
2022/03/18 10:28:06;;;;;;;0.10;0.10;;;;;;;;;;5002361;28;20305;-67
2022/03/18 10:30:34;;;;;;;0.10;0.10;;;;;;;;;;5004715;28;20208;-66
2022/03/18 10:33:01;;;;;;;0.10;0.10;;;;;;;;;;4996855;28;20204;-66
2022/03/18 10:38:37;;;;;;;0.07;0.07;;;;;;;;;;5027510;22;20238;-70
2022/03/18 10:41:07;;;;;;;0.10;0.10;;;;;;;;;;5044833;28;20202;-71
2022/03/18 10:43:51;;;;;;;0.00;0.00;;;;;;;;;;5047303;28;20232;-70
2022/03/18 10:46:18;;;;;;;0.03;0.03;;;;;;;;;;5061701;28;20201;-69
2022/03/18 10:49:01;;;;;;;0.00;0.00;;;;;;;;;;5042117;28;20224;-67
2022/03/18 10:51:30;;;;;;;0.10;0.10;;;;;;;;;;5061536;28;20243;-67
2022/03/18 10:53:58;;;;;;;0.10;0.10;;;;;;;;;;5060689;28;20197;-68
2022/03/18 10:56:26;;;;;;;0.10;0.10;;;;;;;;;;5045660;28;20205;-68
2022/03/18 10:58:53;;;;;;;0.10;0.10;;;;;;;;;;5043889;28;20245;-68
2022/03/18 11:01:21;;;;;;;0.00;0.00;;;;;;;;;;5043570;28;20210;-68
2022/03/18 11:03:48;;;;;;;0.10;0.10;;;12.10;99.90;;;;;;5066221;28;20223;-69
2022/03/18 11:06:18;;;;;;;0.10;0.10;;;12.50;99.90;;;;;;5045452;28;20678;-67
2022/03/18 11:08:48;;;;;;;0.10;0.10;;;12.60;99.90;;;;;;5063432;28;20233;-68
2022/03/18 11:11:18;;;;;;;0.10;0.10;;;12.50;99.90;;;;;;5061638;28;20207;-68
2022/03/18 11:13:56;;;;;;;0.10;0.10;;;12.80;99.90;;;;;;5064085;28;20218;-68
2022/03/18 11:16:27;;;;;;;0.07;0.07;;;12.90;99.90;;;;;;5046753;28;20201;-67
2022/03/18 11:18:54;;;;;;;0.10;0.10;;;13.00;99.90;;;;;;5032530;28;20240;-67
2022/03/18 11:21:24;;;;;;;0.10;0.10;;;13.10;99.90;;;;;;5062304;28;20203;-68
2022/03/18 11:23:55;;;;;;;0.10;0.10;;;13.40;99.90;;;;;;5064292;28;20272;-67
2022/03/18 11:26:23;;;;;;;0.03;0.03;;;13.30;99.90;;;;;;5049154;28;20226;-67
2022/03/18 11:29:06;;;;;;;0.10;0.10;;;13.20;99.90;;;;;;5047386;28;20233;-68
2022/03/18 11:31:33;;;;;;;0.10;0.10;;;13.40;99.90;;;;;;5046815;28;20275;-66
2022/03/18 11:34:11;;;;;;;0.10;0.10;;;13.30;99.90;;;;;;5062954;28;20194;-68
2022/03/18 11:36:46;;;;;;;0.10;0.10;;;13.40;99.90;;;;;;5061322;28;20210;-68
2022/03/18 11:39:20;;;;;;;0.00;0.00;;;13.40;99.90;;;;;;5067841;28;20231;-68
2022/03/18 11:41:53;;;;;;;0.00;0.00;;;13.40;99.90;;;;;;5051344;28;20252;-68
2022/03/18 11:44:53;;;;;;;0.10;0.10;;;13.50;99.90;;;;;;5067078;28;20205;-68
2022/03/18 11:47:45;;;;;;;0.10;0.10;;;13.50;99.90;;;;;;5049205;28;20684;-68
2022/03/18 11:50:35;;;;;;;0.10;0.10;;;13.50;99.90;;;;;;5064180;28;20195;-68
2022/03/18 11:53:02;;;;;;;0.00;0.00;;;13.30;99.90;;;;;;5048698;28;20199;-68
2022/03/18 11:55:31;;;;;;;0.10;0.10;;;13.40;99.90;;;;;;5067689;28;20191;-68
2022/03/18 11:57:58;;;;;;;0.00;0.00;;;13.50;99.90;;;;;;5049917;28;20602;-67
2022/03/18 12:00:43;;;;;;;0.00;0.00;;;13.50;99.90;;;;;;5068505;28;20194;-68
2022/03/18 12:03:20;;;;;;;0.10;0.10;;;13.60;99.90;;;;;;5068261;28;20225;-68
2022/03/18 12:05:54;;;;;;;0.10;0.10;;;13.40;99.90;;;;;;5053118;28;20217;-68
2022/03/18 12:08:54;;;;;;;0.10;0.10;;;13.40;99.90;;;;;;5054429;22;20259;-68
2022/03/18 12:11:32;;;;;;;0.03;0.03;;;13.40;99.90;;;;;;5065462;28;20219;-66
2022/03/18 12:14:00;;;;;;;0.10;0.10;;;13.40;99.90;;;;;;5058344;28;20194;-67
2022/03/18 12:16:27;;;;;;;0.10;0.10;;;13.50;99.90;;;;;;5077998;28;20229;-66
2022/03/18 12:18:56;;;;;;;0.10;0.10;;;13.30;99.90;;;;;;5067810;28;20226;-66
2022/03/18 12:21:39;;;;;;;0.00;0.00;;;13.30;99.90;;;;;;5040057;28;20199;-66
2022/03/18 12:24:09;;;;;;;0.10;0.10;;;13.30;99.90;;;;;;5052357;28;20230;-67
2022/03/18 12:26:39;;;;;;;0.00;0.00;;;13.30;99.90;;;;;;5058725;28;20226;-67
2022/03/18 12:29:06;;;;;;;0.03;0.03;;;13.30;99.90;;;;;;5050289;28;20214;-67
2022/03/18 12:31:34;;;;;;;0.10;0.10;;;13.30;99.90;;;;;;5040424;28;20214;-66
2022/03/18 12:34:05;;;;;;;0.00;0.00;;;13.30;99.90;;;;;;5039295;28;20231;-66
2022/03/18 12:36:33;;;;;;;0.00;0.00;;;13.00;99.90;;;;;;5054177;28;20213;-66
2022/03/18 12:39:21;;;;;;;0.00;0.00;;;13.10;99.90;;;;;;5040115;28;20337;-67
2022/03/18 12:41:49;;;;;;;0.10;0.10;;;13.10;99.90;;;;;;5036487;28;20313;-67
2022/03/18 12:44:30;;;;;;;0.10;0.10;;;13.10;99.90;;;;;;5040907;28;20319;-67
2022/03/18 12:46:58;;;;;;;0.00;0.00;;;13.10;99.90;;;;;;5042334;28;20301;-67
2022/03/18 12:49:31;;;;;;;0.10;0.10;;;13.30;99.90;;;;;;5039297;28;20245;-67
2022/03/18 12:51:59;;;;;;;0.10;0.10;;;13.20;99.90;;;;;;5058763;28;20290;-66
2022/03/18 12:54:26;;;;;;;0.00;0.00;;;13.30;99.90;;;;;;5040390;28;20282;-66
2022/03/18 12:57:09;;;;;;;0.10;0.10;;;13.30;99.90;;;;;;5039099;28;20198;-66
2022/03/18 12:59:38;;;;;;;0.00;0.00;;;13.30;99.90;;;;;;5047478;28;20250;-66
2022/03/18 13:02:06;;;;;;;0.10;0.10;;;13.30;99.90;;;;;;5057518;28;20206;-65
2022/03/18 13:04:34;;;;;;;0.00;0.00;;;13.50;99.90;;;;;;5034177;28;20218;-66
2022/03/18 13:07:01;;;;;;;0.00;0.00;;;13.50;99.90;;;;;;5039474;28;20226;-67
2022/03/18 13:09:28;;;;;;;0.00;0.00;;;13.60;99.90;;;;;;5034187;28;20238;-66
2022/03/18 13:11:55;;;;;;;0.00;0.00;;;13.60;99.90;;;;;;5058958;28;20205;-66
2022/03/18 13:14:36;;;;;;;0.10;0.10;;;13.40;99.90;;;;;;5057616;28;20198;-66
2022/03/18 13:17:04;;;;;;;0.10;0.10;;;13.20;99.90;;;;;;5050787;28;20226;-66
2022/03/18 13:19:39;;;;;;;0.10;0.10;;;12.90;99.90;;;;;;5050856;28;20225;-68
2022/03/18 13:22:06;;;;;;;0.03;0.03;;;12.90;99.90;;;;;;5055075;28;20670;-66
2022/03/18 13:24:34;;;;;;;0.00;0.00;;;12.80;99.90;;;;;;5055879;28;20215;-66
2022/03/18 13:27:02;;;;;;;0.00;0.00;;;12.80;99.90;;;;;;5049828;28;20222;-66
2022/03/18 13:34:57;;;;;;;0.10;0.10;;;12.60;99.90;;;;;;5038981;28;20222;-66
2022/03/18 13:37:25;;;;;;;0.00;0.00;;;12.50;99.90;;;;;;5026124;28;20213;-67
2022/03/18 13:40:07;;;;;;;0.00;0.00;;;12.40;99.90;;;;;;5032208;28;20308;-67
2022/03/18 13:42:34;;;;;;;0.00;0.00;;;12.30;99.90;;;;;;5051436;28;20202;-67
2022/03/18 13:45:01;;;;;;;0.10;0.10;;;12.40;99.90;;;;;;5033060;28;20190;-69
2022/03/18 13:47:30;;;;;;;0.00;0.00;;;12.40;99.90;;;;;;5043651;28;20217;-67
2022/03/18 13:49:59;;;;;;;0.00;0.00;;;12.50;99.90;;;;;;5054140;28;20188;-66
2022/03/18 13:52:34;;;;;;;0.10;0.10;;;12.50;99.90;;;;;;5049249;28;20206;-66
2022/03/18 13:55:02;;;;;;;0.10;0.10;;;12.60;99.90;;;;;;5048725;28;20226;-66
2022/03/18 13:57:45;;;;;;;0.00;0.00;;;12.60;99.90;;;;;;5036610;28;20452;-66
2022/03/18 14:00:13;;;;;;;0.00;0.00;;;12.60;99.90;;;;;;5034546;28;20345;-66
2022/03/18 14:02:41;;;;;;;0.10;0.10;;;12.60;99.90;;;;;;5037224;28;20210;-66
2022/03/18 14:05:09;;;;;;;0.10;0.10;;;12.60;99.90;;;;;;5055305;28;20236;-66
2022/03/18 14:07:47;;;;;;;0.00;0.00;;;12.60;99.90;;;;;;5053501;28;20226;-67
2022/03/18 14:10:16;;;;;;;0.03;0.03;;;12.60;99.90;;;;;;5035387;28;20191;-66
2022/03/18 14:13:01;;;;;;;0.03;0.03;;;12.50;99.90;;;;;;5031783;28;20198;-66
2022/03/18 14:15:33;;;;;;;0.10;0.10;;;12.50;99.90;;;;;;5051564;28;20252;-66
2022/03/18 14:18:04;;;;;;;0.00;0.00;;;12.50;99.90;;;;;;5052714;28;20317;-66
2022/03/18 14:20:34;;;;;;;0.10;0.10;;;12.50;99.90;;;;;;5048001;28;20210;-67
2022/03/18 14:23:18;;;;;;;0.00;0.00;;;12.60;99.90;;;;;;5036764;28;20298;-68
2022/03/18 14:25:54;;;;;;;0.00;0.00;;;12.60;99.90;;;;;;5025790;28;20206;-67
2022/03/18 14:28:25;;;;;;;0.00;0.00;;;12.60;99.90;;;;;;5034142;28;20222;-66
2022/03/18 14:30:54;;;;;;;0.10;0.10;;;12.60;99.90;;;;;;5054359;28;20533;-66
2022/03/18 14:33:25;;;;;;;0.10;0.10;;;12.70;99.90;;;;;;5037102;28;20241;-67
2022/03/18 14:35:54;;;;;;;0.00;0.00;;;12.70;99.90;;;;;;5056398;28;20198;-67